sensor_id;sensor_type;location;lat;lon;timestamp;temperature;humidity
3275;DHT22;1649;53.672;10.064;2023-05-27T00:01:01;9.80;99.90
3275;DHT22;1649;53.672;10.064;2023-05-27T00:03:26;9.80;99.90
3275;DHT22;1649;53.672;10.064;2023-05-27T00:05:52;9.70;99.90
3275;DHT22;1649;53.672;10.064;2023-05-27T00:08:17;9.70;99.90
3275;DHT22;1649;53.672;10.064;2023-05-27T00:10:43;9.60;99.90
3275;DHT22;1649;53.672;10.064;2023-05-27T00:13:09;9.60;99.90
3275;DHT22;1649;53.672;10.064;2023-05-27T00:15:34;9.50;99.90
3275;DHT22;1649;53.672;10.064;2023-05-27T00:18:01;9.40;99.90
3275;DHT22;1649;53.672;10.064;2023-05-27T00:20:27;9.40;99.90
3275;DHT22;1649;53.672;10.064;2023-05-27T00:22:56;9.40;99.90
3275;DHT22;1649;53.672;10.064;2023-05-27T00:25:22;9.40;99.90
3275;DHT22;1649;53.672;10.064;2023-05-27T00:27:48;9.40;99.90
3275;DHT22;1649;53.672;10.064;2023-05-27T00:30:15;9.30;99.90
3275;DHT22;1649;53.672;10.064;2023-05-27T00:32:41;9.30;99.90
3275;DHT22;1649;53.672;10.064;2023-05-27T00:35:08;9.30;99.90
3275;DHT22;1649;53.672;10.064;2023-05-27T00:37:34;9.30;99.90
3275;DHT22;1649;53.672;10.064;2023-05-27T00:39:59;9.30;99.90
3275;DHT22;1649;53.672;10.064;2023-05-27T00:42:25;9.20;99.90
3275;DHT22;1649;53.672;10.064;2023-05-27T00:44:51;9.20;99.90
3275;DHT22;1649;53.672;10.064;2023-05-27T00:47:17;9.00;99.90
3275;DHT22;1649;53.672;10.064;2023-05-27T00:49:45;9.10;99.90
3275;DHT22;1649;53.672;10.064;2023-05-27T00:52:11;9.10;99.90
3275;DHT22;1649;53.672;10.064;2023-05-27T00:54:39;9.10;99.90
3275;DHT22;1649;53.672;10.064;2023-05-27T00:57:05;9.10;99.90
3275;DHT22;1649;53.672;10.064;2023-05-27T00:59:31;9.10;99.90
3275;DHT22;1649;53.672;10.064;2023-05-27T01:01:57;9.10;99.90
3275;DHT22;1649;53.672;10.064;2023-05-27T01:04:24;9.10;99.90
3275;DHT22;1649;53.672;10.064;2023-05-27T01:09:48;9.00;99.90
3275;DHT22;1649;53.672;10.064;2023-05-27T01:14:48;9.00;99.90
3275;DHT22;1649;53.672;10.064;2023-05-27T01:17:15;9.00;99.90
3275;DHT22;1649;53.672;10.064;2023-05-27T01:19:45;8.90;99.90
3275;DHT22;1649;53.672;10.064;2023-05-27T01:22:14;8.90;99.90
3275;DHT22;1649;53.672;10.064;2023-05-27T01:24:40;8.90;99.90
3275;DHT22;1649;53.672;10.064;2023-05-27T01:27:10;8.80;99.90
3275;DHT22;1649;53.672;10.064;2023-05-27T01:29:41;8.80;99.90
3275;DHT22;1649;53.672;10.064;2023-05-27T01:32:30;8.80;99.90
3275;DHT22;1649;53.672;10.064;2023-05-27T01:37:35;8.70;99.90
3275;DHT22;1649;53.672;10.064;2023-05-27T01:40:02;8.70;99.90
3275;DHT22;1649;53.672;10.064;2023-05-27T01:42:36;8.60;99.90
3275;DHT22;1649;53.672;10.064;2023-05-27T01:45:05;8.60;99.90
3275;DHT22;1649;53.672;10.064;2023-05-27T01:47:31;8.60;99.90
3275;DHT22;1649;53.672;10.064;2023-05-27T01:49:57;8.60;99.90
3275;DHT22;1649;53.672;10.064;2023-05-27T01:52:23;8.60;99.90
3275;DHT22;1649;53.672;10.064;2023-05-27T01:54:48;8.50;99.90
3275;DHT22;1649;53.672;10.064;2023-05-27T01:57:14;8.50;99.90
3275;DHT22;1649;53.672;10.064;2023-05-27T01:59:40;8.50;99.90
3275;DHT22;1649;53.672;10.064;2023-05-27T02:02:06;8.50;99.90
3275;DHT22;1649;53.672;10.064;2023-05-27T02:04:31;8.50;99.90
3275;DHT22;1649;53.672;10.064;2023-05-27T02:06:57;8.40;99.90
3275;DHT22;1649;53.672;10.064;2023-05-27T02:09:22;8.50;99.90
3275;DHT22;1649;53.672;10.064;2023-05-27T02:11:48;8.50;99.90
3275;DHT22;1649;53.672;10.064;2023-05-27T02:14:14;8.40;99.90
3275;DHT22;1649;53.672;10.064;2023-05-27T02:16:39;8.40;99.90
3275;DHT22;1649;53.672;10.064;2023-05-27T02:19:05;8.40;99.90
3275;DHT22;1649;53.672;10.064;2023-05-27T02:21:31;8.30;99.90
3275;DHT22;1649;53.672;10.064;2023-05-27T02:23:57;8.30;99.90
3275;DHT22;1649;53.672;10.064;2023-05-27T02:26:22;8.20;99.90
3275;DHT22;1649;53.672;10.064;2023-05-27T02:28:48;8.20;99.90
3275;DHT22;1649;53.672;10.064;2023-05-27T02:31:14;8.20;99.90
3275;DHT22;1649;53.672;10.064;2023-05-27T02:33:40;8.20;99.90
3275;DHT22;1649;53.672;10.064;2023-05-27T02:36:05;8.20;99.90
3275;DHT22;1649;53.672;10.064;2023-05-27T02:38:32;8.10;99.90
3275;DHT22;1649;53.672;10.064;2023-05-27T02:40:57;8.10;99.90
3275;DHT22;1649;53.672;10.064;2023-05-27T02:43:22;8.20;99.90
3275;DHT22;1649;53.672;10.064;2023-05-27T02:45:48;8.10;99.90
3275;DHT22;1649;53.672;10.064;2023-05-27T02:48:14;8.20;99.90
3275;DHT22;1649;53.672;10.064;2023-05-27T02:50:39;8.10;99.90
3275;DHT22;1649;53.672;10.064;2023-05-27T02:53:05;8.10;99.90
3275;DHT22;1649;53.672;10.064;2023-05-27T02:55:31;8.10;99.90
3275;DHT22;1649;53.672;10.064;2023-05-27T02:57:56;8.10;99.90
3275;DHT22;1649;53.672;10.064;2023-05-27T03:00:22;8.10;99.90
3275;DHT22;1649;53.672;10.064;2023-05-27T03:02:48;8.10;99.90
3275;DHT22;1649;53.672;10.064;2023-05-27T03:05:13;8.00;99.90
3275;DHT22;1649;53.672;10.064;2023-05-27T03:07:39;7.90;99.90
3275;DHT22;1649;53.672;10.064;2023-05-27T03:10:07;8.00;99.90
3275;DHT22;1649;53.672;10.064;2023-05-27T03:12:33;8.00;99.90
3275;DHT22;1649;53.672;10.064;2023-05-27T03:14:58;8.00;99.90
3275;DHT22;1649;53.672;10.064;2023-05-27T03:17:24;7.90;99.90
3275;DHT22;1649;53.672;10.064;2023-05-27T03:19:49;7.90;99.90
3275;DHT22;1649;53.672;10.064;2023-05-27T03:22:15;7.90;99.90
3275;DHT22;1649;53.672;10.064;2023-05-27T03:24:41;7.90;99.90
3275;DHT22;1649;53.672;10.064;2023-05-27T03:27:06;7.90;99.90
3275;DHT22;1649;53.672;10.064;2023-05-27T03:29:32;7.80;99.90
3275;DHT22;1649;53.672;10.064;2023-05-27T03:31:58;7.80;99.90
3275;DHT22;1649;53.672;10.064;2023-05-27T03:34:24;7.70;99.90
3275;DHT22;1649;53.672;10.064;2023-05-27T03:36:49;7.70;99.90
3275;DHT22;1649;53.672;10.064;2023-05-27T03:39:16;7.80;99.90
3275;DHT22;1649;53.672;10.064;2023-05-27T03:41:43;7.80;99.90
3275;DHT22;1649;53.672;10.064;2023-05-27T03:44:08;7.80;99.90
3275;DHT22;1649;53.672;10.064;2023-05-27T03:46:35;7.80;99.90
3275;DHT22;1649;53.672;10.064;2023-05-27T03:49:01;7.80;99.90
3275;DHT22;1649;53.672;10.064;2023-05-27T03:51:27;7.80;99.90
3275;DHT22;1649;53.672;10.064;2023-05-27T03:53:52;7.80;99.90
3275;DHT22;1649;53.672;10.064;2023-05-27T03:56:18;7.80;99.90
3275;DHT22;1649;53.672;10.064;2023-05-27T03:58:43;7.80;99.90
3275;DHT22;1649;53.672;10.064;2023-05-27T04:01:09;7.80;99.90
3275;DHT22;1649;53.672;10.064;2023-05-27T04:03:35;7.90;99.90
3275;DHT22;1649;53.672;10.064;2023-05-27T04:06:02;7.90;99.90
3275;DHT22;1649;53.672;10.064;2023-05-27T04:08:28;7.90;99.90
3275;DHT22;1649;53.672;10.064;2023-05-27T04:10:54;7.90;99.90
3275;DHT22;1649;53.672;10.064;2023-05-27T04:13:20;7.90;99.90
3275;DHT22;1649;53.672;10.064;2023-05-27T04:15:46;8.00;99.90
3275;DHT22;1649;53.672;10.064;2023-05-27T04:18:12;8.00;99.90
3275;DHT22;1649;53.672;10.064;2023-05-27T04:20:39;8.00;99.90
3275;DHT22;1649;53.672;10.064;2023-05-27T04:23:07;8.10;99.90
3275;DHT22;1649;53.672;10.064;2023-05-27T04:25:33;8.10;99.90
3275;DHT22;1649;53.672;10.064;2023-05-27T04:28:00;8.20;99.90
3275;DHT22;1649;53.672;10.064;2023-05-27T04:30:29;8.20;99.90
3275;DHT22;1649;53.672;10.064;2023-05-27T04:32:55;8.30;99.90
3275;DHT22;1649;53.672;10.064;2023-05-27T04:35:21;8.30;99.90
3275;DHT22;1649;53.672;10.064;2023-05-27T04:37:47;8.40;99.90
3275;DHT22;1649;53.672;10.064;2023-05-27T04:40:13;8.40;99.90
3275;DHT22;1649;53.672;10.064;2023-05-27T04:42:39;8.50;99.90
3275;DHT22;1649;53.672;10.064;2023-05-27T04:45:05;8.60;99.90
3275;DHT22;1649;53.672;10.064;2023-05-27T04:47:34;8.70;99.90
3275;DHT22;1649;53.672;10.064;2023-05-27T04:50:04;8.70;99.90
3275;DHT22;1649;53.672;10.064;2023-05-27T04:52:30;8.80;99.90
3275;DHT22;1649;53.672;10.064;2023-05-27T04:55:05;9.00;99.90
3275;DHT22;1649;53.672;10.064;2023-05-27T04:57:32;9.00;99.90
3275;DHT22;1649;53.672;10.064;2023-05-27T04:59:58;9.10;99.90
3275;DHT22;1649;53.672;10.064;2023-05-27T05:02:38;9.30;99.90
3275;DHT22;1649;53.672;10.064;2023-05-27T05:05:08;9.40;99.90
3275;DHT22;1649;53.672;10.064;2023-05-27T05:07:35;9.50;99.90
3275;DHT22;1649;53.672;10.064;2023-05-27T05:10:06;9.60;99.90
3275;DHT22;1649;53.672;10.064;2023-05-27T05:12:32;9.60;99.90
3275;DHT22;1649;53.672;10.064;2023-05-27T05:14:58;9.70;99.90
3275;DHT22;1649;53.672;10.064;2023-05-27T05:17:23;9.80;99.90
3275;DHT22;1649;53.672;10.064;2023-05-27T05:19:50;9.80;99.90
3275;DHT22;1649;53.672;10.064;2023-05-27T05:22:16;9.90;99.90
3275;DHT22;1649;53.672;10.064;2023-05-27T05:24:44;10.00;99.90
3275;DHT22;1649;53.672;10.064;2023-05-27T05:27:10;10.10;99.90
3275;DHT22;1649;53.672;10.064;2023-05-27T05:29:35;10.10;99.90
3275;DHT22;1649;53.672;10.064;2023-05-27T05:32:02;10.20;99.90
3275;DHT22;1649;53.672;10.064;2023-05-27T05:34:28;10.30;99.90
3275;DHT22;1649;53.672;10.064;2023-05-27T05:36:53;10.50;99.90
3275;DHT22;1649;53.672;10.064;2023-05-27T05:39:19;10.60;99.90
3275;DHT22;1649;53.672;10.064;2023-05-27T05:41:45;10.70;99.90
3275;DHT22;1649;53.672;10.064;2023-05-27T05:44:11;10.70;99.90
3275;DHT22;1649;53.672;10.064;2023-05-27T05:46:37;10.80;99.90
3275;DHT22;1649;53.672;10.064;2023-05-27T05:49:03;10.90;99.90
3275;DHT22;1649;53.672;10.064;2023-05-27T05:51:29;10.90;99.90
3275;DHT22;1649;53.672;10.064;2023-05-27T05:53:59;11.10;99.90
3275;DHT22;1649;53.672;10.064;2023-05-27T05:56:25;11.10;99.90
3275;DHT22;1649;53.672;10.064;2023-05-27T05:58:53;11.30;99.90
3275;DHT22;1649;53.672;10.064;2023-05-27T06:01:18;11.30;99.90
3275;DHT22;1649;53.672;10.064;2023-05-27T06:03:44;11.30;99.90
3275;DHT22;1649;53.672;10.064;2023-05-27T06:06:10;11.40;99.90
3275;DHT22;1649;53.672;10.064;2023-05-27T06:08:35;11.50;99.90
3275;DHT22;1649;53.672;10.064;2023-05-27T06:11:01;11.60;99.90
3275;DHT22;1649;53.672;10.064;2023-05-27T06:13:26;11.50;99.90
3275;DHT22;1649;53.672;10.064;2023-05-27T06:15:52;11.60;99.90
3275;DHT22;1649;53.672;10.064;2023-05-27T06:18:17;11.70;99.90
3275;DHT22;1649;53.672;10.064;2023-05-27T06:20:43;11.80;99.90
3275;DHT22;1649;53.672;10.064;2023-05-27T06:23:09;11.80;99.90
3275;DHT22;1649;53.672;10.064;2023-05-27T06:25:34;12.00;99.90
3275;DHT22;1649;53.672;10.064;2023-05-27T06:28:00;12.20;99.90
3275;DHT22;1649;53.672;10.064;2023-05-27T06:30:26;12.50;99.90
3275;DHT22;1649;53.672;10.064;2023-05-27T06:32:52;12.70;99.90
3275;DHT22;1649;53.672;10.064;2023-05-27T06:35:17;12.80;99.90
3275;DHT22;1649;53.672;10.064;2023-05-27T06:37:43;12.80;99.90
3275;DHT22;1649;53.672;10.064;2023-05-27T06:40:09;12.80;99.90
3275;DHT22;1649;53.672;10.064;2023-05-27T06:42:36;12.90;99.90
3275;DHT22;1649;53.672;10.064;2023-05-27T06:45:01;12.90;99.90
3275;DHT22;1649;53.672;10.064;2023-05-27T06:47:27;13.00;99.90
3275;DHT22;1649;53.672;10.064;2023-05-27T06:49:52;13.00;99.90
3275;DHT22;1649;53.672;10.064;2023-05-27T06:52:18;13.30;99.90
3275;DHT22;1649;53.672;10.064;2023-05-27T06:54:44;13.50;99.90
3275;DHT22;1649;53.672;10.064;2023-05-27T06:57:09;13.50;99.90
3275;DHT22;1649;53.672;10.064;2023-05-27T06:59:35;13.70;99.90
3275;DHT22;1649;53.672;10.064;2023-05-27T07:02:00;13.90;99.90
3275;DHT22;1649;53.672;10.064;2023-05-27T07:04:26;14.20;99.90
3275;DHT22;1649;53.672;10.064;2023-05-27T07:06:52;14.40;99.90
3275;DHT22;1649;53.672;10.064;2023-05-27T07:09:17;14.60;99.90
3275;DHT22;1649;53.672;10.064;2023-05-27T07:11:43;15.00;99.90
3275;DHT22;1649;53.672;10.064;2023-05-27T07:14:08;15.30;99.90
3275;DHT22;1649;53.672;10.064;2023-05-27T07:16:37;16.10;99.90
3275;DHT22;1649;53.672;10.064;2023-05-27T07:19:02;17.20;99.90
3275;DHT22;1649;53.672;10.064;2023-05-27T07:21:28;18.30;99.90
3275;DHT22;1649;53.672;10.064;2023-05-27T07:23:53;19.30;99.90
3275;DHT22;1649;53.672;10.064;2023-05-27T07:26:19;20.10;99.90
3275;DHT22;1649;53.672;10.064;2023-05-27T07:28:45;20.30;99.00
3275;DHT22;1649;53.672;10.064;2023-05-27T07:31:11;20.80;99.50
3275;DHT22;1649;53.672;10.064;2023-05-27T07:33:36;21.30;97.60
3275;DHT22;1649;53.672;10.064;2023-05-27T07:36:02;21.30;94.70
3275;DHT22;1649;53.672;10.064;2023-05-27T07:38:28;21.80;95.90
3275;DHT22;1649;53.672;10.064;2023-05-27T07:40:53;22.10;95.20
3275;DHT22;1649;53.672;10.064;2023-05-27T07:43:19;22.60;91.90
3275;DHT22;1649;53.672;10.064;2023-05-27T07:45:44;22.60;93.20
3275;DHT22;1649;53.672;10.064;2023-05-27T07:48:10;22.50;92.90
3275;DHT22;1649;53.672;10.064;2023-05-27T07:50:35;22.60;92.20
3275;DHT22;1649;53.672;10.064;2023-05-27T07:53:01;22.90;91.70
3275;DHT22;1649;53.672;10.064;2023-05-27T07:55:27;22.50;90.90
3275;DHT22;1649;53.672;10.064;2023-05-27T07:57:54;23.10;92.70
3275;DHT22;1649;53.672;10.064;2023-05-27T08:00:20;23.70;92.20
3275;DHT22;1649;53.672;10.064;2023-05-27T08:02:45;23.50;91.00
3275;DHT22;1649;53.672;10.064;2023-05-27T08:05:11;23.30;91.80
3275;DHT22;1649;53.672;10.064;2023-05-27T08:07:36;23.70;92.80
3275;DHT22;1649;53.672;10.064;2023-05-27T08:10:02;24.10;92.00
3275;DHT22;1649;53.672;10.064;2023-05-27T08:12:28;24.40;90.60
3275;DHT22;1649;53.672;10.064;2023-05-27T08:14:53;25.20;90.60
3275;DHT22;1649;53.672;10.064;2023-05-27T08:17:19;25.40;84.10
3275;DHT22;1649;53.672;10.064;2023-05-27T08:19:44;25.60;87.70
3275;DHT22;1649;53.672;10.064;2023-05-27T08:22:09;25.40;85.70
3275;DHT22;1649;53.672;10.064;2023-05-27T08:24:35;25.10;86.50
3275;DHT22;1649;53.672;10.064;2023-05-27T08:27:01;25.20;86.30
3275;DHT22;1649;53.672;10.064;2023-05-27T08:29:28;25.50;87.60
3275;DHT22;1649;53.672;10.064;2023-05-27T08:31:56;25.30;82.50
3275;DHT22;1649;53.672;10.064;2023-05-27T08:34:22;25.60;87.90
3275;DHT22;1649;53.672;10.064;2023-05-27T08:36:47;26.10;84.70
3275;DHT22;1649;53.672;10.064;2023-05-27T08:39:13;26.10;85.00
3275;DHT22;1649;53.672;10.064;2023-05-27T08:41:39;26.20;87.30
3275;DHT22;1649;53.672;10.064;2023-05-27T08:44:05;26.00;80.20
3275;DHT22;1649;53.672;10.064;2023-05-27T08:46:32;25.20;81.00
3275;DHT22;1649;53.672;10.064;2023-05-27T08:48:58;24.10;82.20
3275;DHT22;1649;53.672;10.064;2023-05-27T08:51:24;24.00;85.30
3275;DHT22;1649;53.672;10.064;2023-05-27T08:53:51;24.40;84.20
3275;DHT22;1649;53.672;10.064;2023-05-27T08:56:19;24.90;85.10
3275;DHT22;1649;53.672;10.064;2023-05-27T08:58:46;25.10;84.70
3275;DHT22;1649;53.672;10.064;2023-05-27T09:01:15;25.20;81.00
3275;DHT22;1649;53.672;10.064;2023-05-27T09:03:41;25.50;79.60
3275;DHT22;1649;53.672;10.064;2023-05-27T09:06:07;25.20;84.20
3275;DHT22;1649;53.672;10.064;2023-05-27T09:08:32;25.00;81.20
3275;DHT22;1649;53.672;10.064;2023-05-27T09:10:58;25.40;83.10
3275;DHT22;1649;53.672;10.064;2023-05-27T09:13:27;26.00;82.20
3275;DHT22;1649;53.672;10.064;2023-05-27T09:16:04;25.80;77.60
3275;DHT22;1649;53.672;10.064;2023-05-27T09:18:32;26.10;80.50
3275;DHT22;1649;53.672;10.064;2023-05-27T09:20:58;26.00;82.40
3275;DHT22;1649;53.672;10.064;2023-05-27T09:23:23;25.50;79.70
3275;DHT22;1649;53.672;10.064;2023-05-27T09:25:49;24.80;77.80
3275;DHT22;1649;53.672;10.064;2023-05-27T09:28:22;23.80;78.20
3275;DHT22;1649;53.672;10.064;2023-05-27T09:30:51;23.40;83.30
3275;DHT22;1649;53.672;10.064;2023-05-27T09:33:22;24.00;90.00
3275;DHT22;1649;53.672;10.064;2023-05-27T09:35:48;24.90;88.10
3275;DHT22;1649;53.672;10.064;2023-05-27T09:38:14;25.30;81.70
3275;DHT22;1649;53.672;10.064;2023-05-27T09:40:44;25.60;81.60
3275;DHT22;1649;53.672;10.064;2023-05-27T09:43:13;25.70;72.00
3275;DHT22;1649;53.672;10.064;2023-05-27T09:45:40;24.50;75.20
3275;DHT22;1649;53.672;10.064;2023-05-27T09:48:06;24.00;77.50
3275;DHT22;1649;53.672;10.064;2023-05-27T09:50:34;24.40;85.90
3275;DHT22;1649;53.672;10.064;2023-05-27T09:53:00;25.00;85.80
3275;DHT22;1649;53.672;10.064;2023-05-27T09:55:28;25.50;83.20
3275;DHT22;1649;53.672;10.064;2023-05-27T09:57:54;25.90;80.30
3275;DHT22;1649;53.672;10.064;2023-05-27T10:00:20;26.30;77.10
3275;DHT22;1649;53.672;10.064;2023-05-27T10:02:47;26.50;81.20
3275;DHT22;1649;53.672;10.064;2023-05-27T10:05:14;26.60;76.50
3275;DHT22;1649;53.672;10.064;2023-05-27T10:07:42;26.90;81.40
3275;DHT22;1649;53.672;10.064;2023-05-27T10:10:14;27.30;82.10
3275;DHT22;1649;53.672;10.064;2023-05-27T10:12:40;27.50;81.90
3275;DHT22;1649;53.672;10.064;2023-05-27T10:15:07;27.30;75.50
3275;DHT22;1649;53.672;10.064;2023-05-27T10:17:56;27.10;79.00
3275;DHT22;1649;53.672;10.064;2023-05-27T10:20:33;26.60;77.10
3275;DHT22;1649;53.672;10.064;2023-05-27T10:23:18;25.90;77.80
3275;DHT22;1649;53.672;10.064;2023-05-27T10:25:48;24.90;80.00
3275;DHT22;1649;53.672;10.064;2023-05-27T10:28:26;24.80;83.70
3275;DHT22;1649;53.672;10.064;2023-05-27T10:30:53;24.60;73.60
3275;DHT22;1649;53.672;10.064;2023-05-27T10:33:29;24.90;80.60
3275;DHT22;1649;53.672;10.064;2023-05-27T10:35:55;25.20;82.10
3275;DHT22;1649;53.672;10.064;2023-05-27T10:38:20;25.70;84.00
3275;DHT22;1649;53.672;10.064;2023-05-27T10:40:46;25.40;76.00
3275;DHT22;1649;53.672;10.064;2023-05-27T10:43:18;25.40;77.80
3275;DHT22;1649;53.672;10.064;2023-05-27T10:45:45;25.80;72.80
3275;DHT22;1649;53.672;10.064;2023-05-27T10:48:20;25.30;69.90
3275;DHT22;1649;53.672;10.064;2023-05-27T10:50:50;25.50;81.00
3275;DHT22;1649;53.672;10.064;2023-05-27T10:53:19;25.70;78.30
3275;DHT22;1649;53.672;10.064;2023-05-27T10:55:47;26.30;79.40
3275;DHT22;1649;53.672;10.064;2023-05-27T10:58:15;26.70;73.10
3275;DHT22;1649;53.672;10.064;2023-05-27T11:00:41;26.90;78.00
3275;DHT22;1649;53.672;10.064;2023-05-27T11:03:17;26.50;68.10
3275;DHT22;1649;53.672;10.064;2023-05-27T11:05:42;25.80;74.00
3275;DHT22;1649;53.672;10.064;2023-05-27T11:08:12;25.60;78.50
3275;DHT22;1649;53.672;10.064;2023-05-27T11:10:40;25.90;74.10
3275;DHT22;1649;53.672;10.064;2023-05-27T11:13:06;25.90;78.60
3275;DHT22;1649;53.672;10.064;2023-05-27T11:15:31;25.60;75.20
3275;DHT22;1649;53.672;10.064;2023-05-27T11:18:03;25.60;76.70
3275;DHT22;1649;53.672;10.064;2023-05-27T11:20:38;25.80;78.20
3275;DHT22;1649;53.672;10.064;2023-05-27T11:23:04;26.10;78.00
3275;DHT22;1649;53.672;10.064;2023-05-27T11:25:41;26.30;74.10
3275;DHT22;1649;53.672;10.064;2023-05-27T11:28:13;26.20;75.00
3275;DHT22;1649;53.672;10.064;2023-05-27T11:30:40;25.50;74.40
3275;DHT22;1649;53.672;10.064;2023-05-27T11:33:05;25.10;78.70
3275;DHT22;1649;53.672;10.064;2023-05-27T11:35:31;25.60;77.10
3275;DHT22;1649;53.672;10.064;2023-05-27T11:37:58;26.10;70.90
3275;DHT22;1649;53.672;10.064;2023-05-27T11:40:23;26.40;74.70
3275;DHT22;1649;53.672;10.064;2023-05-27T11:42:49;26.40;77.10
3275;DHT22;1649;53.672;10.064;2023-05-27T11:45:16;25.40;68.20
3275;DHT22;1649;53.672;10.064;2023-05-27T11:47:42;25.50;74.50
3275;DHT22;1649;53.672;10.064;2023-05-27T11:50:08;25.00;71.60
3275;DHT22;1649;53.672;10.064;2023-05-27T11:52:34;25.30;78.20
3275;DHT22;1649;53.672;10.064;2023-05-27T11:55:00;25.70;80.10
3275;DHT22;1649;53.672;10.064;2023-05-27T11:57:25;26.10;76.50
3275;DHT22;1649;53.672;10.064;2023-05-27T11:59:51;26.00;72.70
3275;DHT22;1649;53.672;10.064;2023-05-27T12:02:16;25.60;70.70
3275;DHT22;1649;53.672;10.064;2023-05-27T12:04:42;25.60;80.40
3275;DHT22;1649;53.672;10.064;2023-05-27T12:07:07;25.70;79.10
3275;DHT22;1649;53.672;10.064;2023-05-27T12:09:33;25.80;76.60
3275;DHT22;1649;53.672;10.064;2023-05-27T12:11:58;25.80;74.60
3275;DHT22;1649;53.672;10.064;2023-05-27T12:14:24;25.80;79.20
3275;DHT22;1649;53.672;10.064;2023-05-27T12:16:49;25.60;75.70
3275;DHT22;1649;53.672;10.064;2023-05-27T12:19:15;25.20;77.10
3275;DHT22;1649;53.672;10.064;2023-05-27T12:21:41;24.70;76.20
3275;DHT22;1649;53.672;10.064;2023-05-27T12:24:06;24.10;76.30
3275;DHT22;1649;53.672;10.064;2023-05-27T12:26:32;23.60;77.40
3275;DHT22;1649;53.672;10.064;2023-05-27T12:28:57;23.10;77.30
3275;DHT22;1649;53.672;10.064;2023-05-27T12:31:24;23.30;83.10
3275;DHT22;1649;53.672;10.064;2023-05-27T12:33:49;23.50;81.40
3275;DHT22;1649;53.672;10.064;2023-05-27T12:36:15;23.60;79.90
3275;DHT22;1649;53.672;10.064;2023-05-27T12:38:41;23.80;79.40
3275;DHT22;1649;53.672;10.064;2023-05-27T12:41:07;23.40;78.40
3275;DHT22;1649;53.672;10.064;2023-05-27T12:43:32;23.10;74.50
3275;DHT22;1649;53.672;10.064;2023-05-27T12:45:58;23.00;76.00
3275;DHT22;1649;53.672;10.064;2023-05-27T12:48:24;23.20;80.00
3275;DHT22;1649;53.672;10.064;2023-05-27T12:50:50;23.30;79.50
3275;DHT22;1649;53.672;10.064;2023-05-27T12:53:16;23.70;79.60
3275;DHT22;1649;53.672;10.064;2023-05-27T12:55:42;23.80;74.60
3275;DHT22;1649;53.672;10.064;2023-05-27T12:58:09;23.70;75.70
3275;DHT22;1649;53.672;10.064;2023-05-27T13:00:34;23.80;77.40
3275;DHT22;1649;53.672;10.064;2023-05-27T13:03:00;23.80;73.60
3275;DHT22;1649;53.672;10.064;2023-05-27T13:05:26;23.70;73.70
3275;DHT22;1649;53.672;10.064;2023-05-27T13:10:22;23.80;75.60
3275;DHT22;1649;53.672;10.064;2023-05-27T13:12:49;24.00;75.90
3275;DHT22;1649;53.672;10.064;2023-05-27T13:15:14;24.40;80.10
3275;DHT22;1649;53.672;10.064;2023-05-27T13:17:42;24.60;74.70
3275;DHT22;1649;53.672;10.064;2023-05-27T13:20:07;24.50;73.20
3275;DHT22;1649;53.672;10.064;2023-05-27T13:22:34;24.30;71.10
3275;DHT22;1649;53.672;10.064;2023-05-27T13:24:59;24.30;77.30
3275;DHT22;1649;53.672;10.064;2023-05-27T13:27:26;24.10;74.60
3275;DHT22;1649;53.672;10.064;2023-05-27T13:29:52;24.10;75.90
3275;DHT22;1649;53.672;10.064;2023-05-27T13:32:17;24.30;75.60
3275;DHT22;1649;53.672;10.064;2023-05-27T13:34:43;24.40;76.80
3275;DHT22;1649;53.672;10.064;2023-05-27T13:37:09;24.10;73.50
3275;DHT22;1649;53.672;10.064;2023-05-27T13:39:34;24.20;79.90
3275;DHT22;1649;53.672;10.064;2023-05-27T13:42:00;24.10;75.30
3275;DHT22;1649;53.672;10.064;2023-05-27T13:44:26;24.00;72.80
3275;DHT22;1649;53.672;10.064;2023-05-27T13:46:51;24.30;78.10
3275;DHT22;1649;53.672;10.064;2023-05-27T13:49:17;23.80;75.10
3275;DHT22;1649;53.672;10.064;2023-05-27T13:51:43;23.70;75.20
3275;DHT22;1649;53.672;10.064;2023-05-27T13:54:09;23.80;76.60
3275;DHT22;1649;53.672;10.064;2023-05-27T13:56:35;23.80;75.10
3275;DHT22;1649;53.672;10.064;2023-05-27T13:59:00;23.70;75.00
3275;DHT22;1649;53.672;10.064;2023-05-27T14:01:28;23.60;74.10
3275;DHT22;1649;53.672;10.064;2023-05-27T14:03:54;23.70;77.80
3275;DHT22;1649;53.672;10.064;2023-05-27T14:06:20;23.70;75.60
3275;DHT22;1649;53.672;10.064;2023-05-27T14:08:45;23.60;75.40
3275;DHT22;1649;53.672;10.064;2023-05-27T14:11:11;23.60;74.00
3275;DHT22;1649;53.672;10.064;2023-05-27T14:13:36;23.40;73.60
3275;DHT22;1649;53.672;10.064;2023-05-27T14:16:02;23.10;72.00
3275;DHT22;1649;53.672;10.064;2023-05-27T14:18:27;22.80;75.50
3275;DHT22;1649;53.672;10.064;2023-05-27T14:20:53;22.60;72.60
3275;DHT22;1649;53.672;10.064;2023-05-27T14:23:19;22.50;74.90
3275;DHT22;1649;53.672;10.064;2023-05-27T14:25:44;22.50;73.90
3275;DHT22;1649;53.672;10.064;2023-05-27T14:28:10;22.40;74.70
3275;DHT22;1649;53.672;10.064;2023-05-27T14:30:36;22.40;74.40
3275;DHT22;1649;53.672;10.064;2023-05-27T14:33:05;22.60;76.80
3275;DHT22;1649;53.672;10.064;2023-05-27T14:35:35;22.90;76.70
3275;DHT22;1649;53.672;10.064;2023-05-27T14:38:01;22.80;75.60
3275;DHT22;1649;53.672;10.064;2023-05-27T14:40:27;22.90;75.50
3275;DHT22;1649;53.672;10.064;2023-05-27T14:42:52;23.10;78.30
3275;DHT22;1649;53.672;10.064;2023-05-27T14:45:18;23.20;80.30
3275;DHT22;1649;53.672;10.064;2023-05-27T14:47:46;23.30;77.40
3275;DHT22;1649;53.672;10.064;2023-05-27T14:50:12;23.50;77.80
3275;DHT22;1649;53.672;10.064;2023-05-27T14:52:37;23.70;74.30
3275;DHT22;1649;53.672;10.064;2023-05-27T14:55:04;23.50;75.80
3275;DHT22;1649;53.672;10.064;2023-05-27T14:57:29;23.20;72.90
3275;DHT22;1649;53.672;10.064;2023-05-27T14:59:59;23.10;74.40
3275;DHT22;1649;53.672;10.064;2023-05-27T15:02:25;22.90;74.80
3275;DHT22;1649;53.672;10.064;2023-05-27T15:04:51;22.80;74.70
3275;DHT22;1649;53.672;10.064;2023-05-27T15:07:16;22.90;76.20
3275;DHT22;1649;53.672;10.064;2023-05-27T15:09:47;22.70;75.30
3275;DHT22;1649;53.672;10.064;2023-05-27T15:12:13;22.60;74.40
3275;DHT22;1649;53.672;10.064;2023-05-27T15:14:39;22.60;75.20
3275;DHT22;1649;53.672;10.064;2023-05-27T15:17:04;22.50;73.80
3275;DHT22;1649;53.672;10.064;2023-05-27T15:19:30;22.50;74.70
3275;DHT22;1649;53.672;10.064;2023-05-27T15:21:56;22.50;77.80
3275;DHT22;1649;53.672;10.064;2023-05-27T15:24:21;22.50;74.10
3275;DHT22;1649;53.672;10.064;2023-05-27T15:26:46;22.60;77.20
3275;DHT22;1649;53.672;10.064;2023-05-27T15:29:12;22.70;76.80
3275;DHT22;1649;53.672;10.064;2023-05-27T15:31:38;22.90;77.80
3275;DHT22;1649;53.672;10.064;2023-05-27T15:34:03;22.60;75.90
3275;DHT22;1649;53.672;10.064;2023-05-27T15:36:29;22.70;79.10
3275;DHT22;1649;53.672;10.064;2023-05-27T15:38:57;22.70;78.10
3275;DHT22;1649;53.672;10.064;2023-05-27T15:41:22;22.70;77.10
3275;DHT22;1649;53.672;10.064;2023-05-27T15:43:48;22.50;76.50
3275;DHT22;1649;53.672;10.064;2023-05-27T15:46:13;22.60;76.20
3275;DHT22;1649;53.672;10.064;2023-05-27T15:48:39;22.50;75.90
3275;DHT22;1649;53.672;10.064;2023-05-27T15:51:04;22.30;76.00
3275;DHT22;1649;53.672;10.064;2023-05-27T15:53:31;22.40;78.00
3275;DHT22;1649;53.672;10.064;2023-05-27T15:55:56;22.30;76.80
3275;DHT22;1649;53.672;10.064;2023-05-27T15:58:22;22.30;78.60